Time;durP1;ratioP1;P1;durP2;ratioP2;P2;SDS_P1;SDS_P2;PMS_P1;PMS_P2;Temp;Humidity;BMP_temperature;BMP_pressure;BME280_temperature;BME280_humidity;BME280_pressure;Samples;Min_cycle;Max_cycle;Signal;HPM_P1;HPM_P2
2022/09/10 00:01:11;;;;;;;7.93;4.28;;;;;;;-145.01;100.00;64805.59;5054602;28;20063;-56
2022/09/10 00:03:36;;;;;;;17.38;4.60;;;;;;;-145.01;100.00;64805.59;5049554;28;20349;-55
2022/09/10 00:06:03;;;;;;;11.73;4.10;;;;;;;-145.01;100.00;64805.59;5053076;28;20029;-55
2022/09/10 00:08:30;;;;;;;11.30;4.40;;;;;;;-145.01;100.00;64805.59;5055320;28;20044;-51
2022/09/10 00:10:56;;;;;;;6.88;3.90;;;;;;;-145.01;100.00;64805.59;5050017;28;20024;-56
2022/09/10 00:13:22;;;;;;;8.38;4.40;;;;;;;-145.01;100.00;64805.59;5047950;28;20025;-53
2022/09/10 00:15:49;;;;;;;13.30;4.80;;;;;;;-145.01;100.00;64805.59;5055707;28;20399;-54
2022/09/10 00:18:15;;;;;;;10.57;4.40;;;;;;;-145.01;100.00;64805.59;5057032;28;20021;-55
2022/09/10 00:20:48;;;;;;;13.32;4.43;;;;;;;-145.01;100.00;64805.59;5052749;28;20032;-55
2022/09/10 00:23:14;;;;;;;11.70;4.18;;;;;;;-145.01;100.00;64805.59;5049338;28;20111;-54
2022/09/10 00:25:41;;;;;;;14.48;4.55;;;;;;;-145.01;100.00;64805.59;5055625;28;20426;-55
2022/09/10 00:28:07;;;;;;;12.55;4.25;;;;;;;-145.01;100.00;64805.59;5051904;28;20041;-55
2022/09/10 00:30:32;;;;;;;11.75;4.50;;;;;;;-145.01;100.00;64805.59;5048113;28;20056;-54
2022/09/10 00:32:59;;;;;;;15.88;4.30;;;;;;;-145.01;100.00;64805.59;5055772;28;20025;-56
2022/09/10 00:35:24;;;;;;;14.05;4.30;;;;;;;-145.01;100.00;64805.59;5048873;28;20468;-54
2022/09/10 00:37:50;;;;;;;12.80;4.57;;;;;;;-145.01;100.00;64805.59;5049445;28;20025;-54
2022/09/10 00:40:15;;;;;;;12.13;4.82;;;;;;;-145.01;100.00;64805.59;5051217;28;20033;-55
2022/09/10 00:42:44;;;;;;;11.40;4.32;;;;;;;-145.01;100.00;64805.59;5049314;28;20025;-55
2022/09/10 00:45:23;;;;;;;14.18;4.60;;;;;;;-145.01;100.00;64805.59;5055042;28;20037;-55
2022/09/10 00:47:49;;;;;;;14.73;5.03;;;;;;;-145.01;100.00;64805.59;5050556;28;20029;-55
2022/09/10 00:50:21;;;;;;;11.75;4.70;;;;;;;-145.01;100.00;64805.59;5033426;28;20112;-54
2022/09/10 00:52:46;;;;;;;11.65;5.25;;;;;;;-145.01;100.00;64805.59;5036161;28;20473;-54
2022/09/10 00:55:12;;;;;;;12.15;4.75;;;;;;;-145.01;100.00;64805.59;5059171;28;20036;-55
2022/09/10 00:57:37;;;;;;;15.40;4.97;;;;;;;-145.01;100.00;64805.59;5090583;28;20028;-55
2022/09/10 01:00:06;;;;;;;9.88;4.85;;;;;;;-145.01;100.00;64805.59;5062220;28;20025;-56
2022/09/10 01:02:32;;;;;;;15.65;5.35;;;;;;;-145.01;100.00;64805.59;5057182;28;20031;-54
2022/09/10 01:04:57;;;;;;;14.85;5.32;;;;;;;-145.01;100.00;64805.59;5057756;28;20045;-54
2022/09/10 01:07:24;;;;;;;16.10;5.43;;;;;;;-145.01;100.00;64805.59;5051584;28;20095;-55
2022/09/10 01:09:50;;;;;;;16.02;5.75;;;;;;;-145.01;100.00;64805.59;5054659;28;20429;-56
2022/09/10 01:12:26;;;;;;;15.52;5.50;;;;;;;-145.01;100.00;64805.59;5051692;28;20037;-55
2022/09/10 01:15:14;;;;;;;12.27;5.47;;;;;;;-145.01;100.00;64805.59;5052006;28;20025;-53
2022/09/10 01:17:58;;;;;;;14.95;5.57;;;;;;;-145.01;100.00;64805.59;5059053;28;20495;-54
2022/09/10 01:20:42;;;;;;;15.15;5.90;;;;;;;-145.01;100.00;64805.59;5062421;28;20058;-55
2022/09/10 01:23:26;;;;;;;9.13;5.25;;;;;;;-145.01;100.00;64805.59;5058088;28;20033;-54
2022/09/10 01:26:28;;;;;;;8.43;5.10;;;;;;;-145.01;100.00;64805.59;5052646;28;20078;-55
2022/09/10 01:29:01;;;;;;;14.68;5.78;;;;;;;-145.01;100.00;64805.59;5052653;28;20039;-54
2022/09/10 01:31:30;;;;;;;15.50;5.20;;;;;;;-145.01;100.00;64805.59;5050791;28;20036;-53
2022/09/10 01:34:51;;;;;;;10.88;4.55;;;;;;;-145.01;100.00;64805.59;5053052;28;20090;-54
2022/09/10 01:37:21;;;;;;;14.25;5.35;;;;;;;-145.01;100.00;64805.59;5002652;28;20037;-53
2022/09/10 01:39:47;;;;;;;13.02;5.30;;;;;;;-145.01;100.00;64805.59;5059264;28;20031;-54
2022/09/10 01:42:14;;;;;;;11.40;4.88;;;;;;;-145.01;100.00;64805.59;5061252;28;20025;-54
2022/09/10 01:44:49;;;;;;;15.55;5.20;;;;;;;-145.01;100.00;64805.59;5054569;28;20058;-55
2022/09/10 01:47:34;;;;;;;14.77;5.95;;;;;;;-145.01;100.00;64805.59;5051417;28;20052;-53
2022/09/10 01:50:22;;;;;;;12.00;4.72;;;;;;;-145.01;100.00;64805.59;5051801;28;20055;-55
2022/09/10 01:53:16;;;;;;;14.45;5.10;;;;;;;-145.01;100.00;64805.59;5058523;28;20079;-55
2022/09/10 01:55:57;;;;;;;12.88;5.20;;;;;;;-145.01;100.00;64805.59;5057561;28;20039;-52
2022/09/10 01:58:29;;;;;;;12.05;4.63;;;;;;;-145.01;100.00;64805.59;5056673;28;20032;-55
2022/09/10 02:01:28;;;;;;;15.68;4.72;;;;;;;-145.01;100.00;64805.59;5058094;28;20074;-55
2022/09/10 02:04:00;;;;;;;12.15;5.00;;;;;;;-145.01;100.00;64805.59;5036062;28;20045;-52
2022/09/10 02:06:28;;;;;;;12.63;4.72;;;;;;;-145.01;100.00;64805.59;5050250;28;20447;-53
2022/09/10 02:08:55;;;;;;;14.85;4.68;;;;;;;-145.01;100.00;64805.59;5057489;28;20025;-53
2022/09/10 02:11:20;;;;;;;18.00;5.38;;;;;;;-145.01;100.00;64805.59;5053495;28;20047;-53
2022/09/10 02:13:46;;;;;;;11.55;4.75;;;;;;;-145.01;100.00;64805.59;5049954;28;20033;-53
2022/09/10 02:16:14;;;;;;;9.25;4.53;;;;;;;-145.01;100.00;64805.59;5057503;28;20025;-54
2022/09/10 02:18:41;;;;;;;11.85;5.07;;;;;;;-145.01;100.00;64805.59;5050043;28;20028;-53
2022/09/10 02:21:06;;;;;;;11.85;4.70;;;;;;;-145.01;100.00;64805.59;5051880;28;20076;-54
2022/09/10 02:23:43;;;;;;;11.90;4.47;;;;;;;-145.01;100.00;64805.59;5020161;28;20025;-53
2022/09/10 02:26:09;;;;;;;9.52;4.40;;;;;;;-145.01;100.00;64805.59;5050285;28;20388;-54
2022/09/10 02:28:35;;;;;;;13.73;4.82;;;;;;;-145.01;100.00;64805.59;5057953;28;20616;-53
2022/09/10 02:31:00;;;;;;;9.07;4.18;;;;;;;-145.01;100.00;64805.59;5049694;28;20399;-52
2022/09/10 02:33:26;;;;;;;13.43;4.97;;;;;;;-145.01;100.00;64805.59;5050195;28;20024;-55
2022/09/10 02:35:53;;;;;;;10.95;4.40;;;;;;;-145.01;100.00;64805.59;5053222;28;20037;-53
2022/09/10 02:38:20;;;;;;;11.68;4.40;;;;;;;-145.01;100.00;64805.59;5059010;28;20055;-54
2022/09/10 02:40:47;;;;;;;9.30;4.38;;;;;;;-145.01;100.00;64805.59;5057744;28;20052;-53
2022/09/10 02:43:13;;;;;;;14.05;4.47;;;;;;;-145.01;100.00;64805.59;5060906;28;20031;-54
2022/09/10 02:45:39;;;;;;;10.15;4.22;;;;;;;-145.01;100.00;64805.59;5059039;28;20029;-53
2022/09/10 02:48:05;;;;;;;13.68;4.20;;;;;;;-145.01;100.00;64805.59;5053827;28;20340;-52
2022/09/10 02:50:32;;;;;;;14.57;4.47;;;;;;;-145.01;100.00;64805.59;5056640;28;20021;-54
2022/09/10 02:52:58;;;;;;;13.60;4.25;;;;;;;-145.01;100.00;64805.59;5051229;28;20028;-54
2022/09/10 02:55:24;;;;;;;16.33;4.55;;;;;;;-145.01;100.00;64805.59;5055339;28;20147;-54
2022/09/10 02:57:49;;;;;;;14.15;4.13;;;;;;;-145.01;100.00;64805.59;5050512;28;20074;-53
2022/09/10 03:00:15;;;;;;;14.55;4.18;;;;;;;-145.01;100.00;64805.59;5057312;28;20036;-53
2022/09/10 03:02:40;;;;;;;11.85;4.30;;;;;;;-145.01;100.00;64805.59;5058037;28;20025;-54
2022/09/10 03:05:06;;;;;;;12.63;4.20;;;;;;;-145.01;100.00;64805.59;5053617;28;20040;-54
2022/09/10 03:07:31;;;;;;;13.90;3.80;;;;;;;-145.01;100.00;64805.59;5050702;28;20383;-54
2022/09/10 03:09:57;;;;;;;9.70;4.30;;;;;;;-145.01;100.00;64805.59;5050688;28;20028;-54
2022/09/10 03:12:22;;;;;;;10.80;3.92;;;;;;;-145.01;100.00;64805.59;5050232;28;20541;-54
2022/09/10 03:14:49;;;;;;;10.55;4.22;;;;;;;-145.01;100.00;64805.59;5050702;28;20025;-55
2022/09/10 03:17:14;;;;;;;10.57;3.80;;;;;;;-145.01;100.00;64805.59;5050754;28;20022;-54
2022/09/10 03:19:40;;;;;;;13.95;4.03;;;;;;;-145.01;100.00;64805.59;5050045;28;20095;-54
2022/09/10 03:22:05;;;;;;;7.38;3.80;;;;;;;-145.01;100.00;64805.59;5049200;28;20730;-54
2022/09/10 03:24:30;;;;;;;9.15;3.90;;;;;;;-145.01;100.00;64805.59;5055988;28;20467;-54
2022/09/10 03:26:56;;;;;;;12.20;4.03;;;;;;;-145.01;100.00;64805.59;5058094;28;20045;-54
2022/09/10 03:29:22;;;;;;;9.77;3.63;;;;;;;-145.01;100.00;64805.59;5057052;28;20179;-54
2022/09/10 03:31:50;;;;;;;7.72;3.63;;;;;;;-145.01;100.00;64805.59;5056196;28;20120;-54
2022/09/10 03:34:19;;;;;;;11.27;3.53;;;;;;;-145.01;100.00;64805.59;5049857;28;20025;-55
2022/09/10 03:36:48;;;;;;;12.13;3.43;;;;;;;-145.01;100.00;64805.59;5060572;28;20055;-54
2022/09/10 03:39:14;;;;;;;20.35;4.30;;;;;;;-145.01;100.00;64805.59;5054224;28;20036;-54
2022/09/10 03:41:39;;;;;;;10.70;3.47;;;;;;;-145.01;100.00;64805.59;5058386;28;20117;-54
2022/09/10 03:44:05;;;;;;;12.38;3.88;;;;;;;-145.01;100.00;64805.59;5055575;28;20056;-53
2022/09/10 03:46:31;;;;;;;10.27;3.45;;;;;;;-145.01;100.00;64805.59;5050288;28;20465;-55
2022/09/10 03:48:58;;;;;;;10.65;3.30;;;;;;;-145.01;100.00;64805.59;5052218;28;20021;-54
2022/09/10 03:51:23;;;;;;;7.88;3.75;;;;;;;-145.01;100.00;64805.59;5052484;28;20025;-54
2022/09/10 03:53:49;;;;;;;13.00;3.70;;;;;;;-145.01;100.00;64805.59;5054399;28;20028;-53
2022/09/10 03:56:18;;;;;;;11.65;3.90;;;;;;;-145.01;100.00;64805.59;5054131;28;20109;-54
2022/09/10 03:58:44;;;;;;;10.05;3.22;;;;;;;-145.01;100.00;64805.59;5052991;28;20029;-53
2022/09/10 04:01:09;;;;;;;11.88;3.25;;;;;;;-145.01;100.00;64805.59;5049945;28;20032;-54
2022/09/10 04:03:35;;;;;;;14.10;3.67;;;;;;;-145.01;100.00;64805.59;5050794;28;20056;-54
2022/09/10 04:06:00;;;;;;;6.55;2.85;;;;;;;-145.01;100.00;64805.59;5053493;28;20028;-54
2022/09/10 04:08:26;;;;;;;6.35;2.95;;;;;;;-145.01;100.00;64805.59;5054226;28;20021;-54
2022/09/10 04:10:51;;;;;;;11.45;3.28;;;;;;;-145.01;100.00;64805.59;5056503;28;20506;-53
2022/09/10 04:13:16;;;;;;;8.38;3.58;;;;;;;-145.01;100.00;64805.59;5054477;28;20029;-53
2022/09/10 04:15:43;;;;;;;9.02;3.17;;;;;;;-145.01;100.00;64805.59;5055882;28;20094;-55
2022/09/10 04:18:12;;;;;;;13.55;3.20;;;;;;;-145.01;100.00;64805.59;5055607;28;20120;-54
2022/09/10 04:20:37;;;;;;;8.98;3.20;;;;;;;-145.01;100.00;64805.59;5048878;28;20029;-54
2022/09/10 04:23:04;;;;;;;11.55;3.40;;;;;;;-145.01;100.00;64805.59;5052997;28;20033;-53
2022/09/10 04:25:29;;;;;;;6.25;2.92;;;;;;;-145.01;100.00;64805.59;5054790;28;20028;-54
2022/09/10 04:27:55;;;;;;;11.93;2.90;;;;;;;-145.01;100.00;64805.59;5056489;28;20507;-54
2022/09/10 04:30:21;;;;;;;10.00;3.10;;;;;;;-145.01;100.00;64805.59;5073276;28;20025;-51
2022/09/10 04:32:46;;;;;;;5.70;2.80;;;;;;;-145.01;100.00;64805.59;5048943;28;20028;-54
2022/09/10 04:35:14;;;;;;;9.88;3.10;;;;;;;-145.01;100.00;64805.59;5049491;28;20025;-54
2022/09/10 04:37:39;;;;;;;5.68;2.40;;;;;;;-145.01;100.00;64805.59;5054553;28;20031;-54
2022/09/10 04:40:06;;;;;;;9.38;2.90;;;;;;;-145.01;100.00;64805.59;5053663;28;20090;-54
2022/09/10 04:42:31;;;;;;;6.97;2.50;;;;;;;-145.01;100.00;64805.59;5053550;28;20471;-53
2022/09/10 04:44:58;;;;;;;5.80;2.22;;;;;;;-145.01;100.00;64805.59;5053229;28;20508;-54
2022/09/10 04:47:23;;;;;;;7.90;2.95;;;;;;;-145.01;100.00;64805.59;5054946;28;20033;-54
2022/09/10 04:49:48;;;;;;;3.67;2.65;;;;;;;-145.01;100.00;64805.59;5049059;28;20055;-54
2022/09/10 04:52:16;;;;;;;9.27;2.70;;;;;;;-145.01;100.00;64805.59;5049654;28;20387;-54
2022/09/10 04:54:41;;;;;;;7.97;2.42;;;;;;;-145.01;100.00;64805.59;5049933;28;20033;-53
2022/09/10 04:57:06;;;;;;;7.13;2.55;;;;;;;-145.01;100.00;64805.59;5049183;28;20036;-54
2022/09/10 04:59:32;;;;;;;5.85;2.47;;;;;;;-145.01;100.00;64805.59;5049672;28;20025;-53
2022/09/10 05:01:57;;;;;;;5.35;2.20;;;;;;;-145.01;100.00;64805.59;5052068;28;20426;-53
2022/09/10 05:04:26;;;;;;;8.90;2.50;;;;;;;-145.01;100.00;64805.59;5047284;28;20120;-54
2022/09/10 05:06:52;;;;;;;10.68;2.53;;;;;;;-145.01;100.00;64805.59;5054542;28;20032;-54
2022/09/10 05:09:17;;;;;;;4.70;2.20;;;;;;;-145.01;100.00;64805.59;5049778;28;20106;-55
2022/09/10 05:11:43;;;;;;;7.30;2.45;;;;;;;-145.01;100.00;64805.59;5056598;28;20029;-54
2022/09/10 05:14:08;;;;;;;8.77;2.58;;;;;;;-145.01;100.00;64805.59;5056145;28;20061;-54
2022/09/10 05:16:35;;;;;;;4.25;2.42;;;;;;;-145.01;100.00;64805.59;5049217;28;20082;-54
2022/09/10 05:19:00;;;;;;;4.55;2.05;;;;;;;-145.01;100.00;64805.59;5048958;28;20360;-56
2022/09/10 05:21:26;;;;;;;4.65;2.15;;;;;;;-145.01;100.00;64805.59;5052742;28;20032;-56
2022/09/10 05:23:51;;;;;;;6.88;2.38;;;;;;;-145.01;100.00;64805.59;5057767;28;20307;-53
2022/09/10 05:26:17;;;;;;;7.90;2.25;;;;;;;-145.01;100.00;64805.59;5052499;28;20115;-54
2022/09/10 05:28:42;;;;;;;4.53;2.08;;;;;;;-145.01;100.00;64805.59;5055312;28;20124;-55
2022/09/10 05:31:08;;;;;;;6.38;2.15;;;;;;;-145.01;100.00;64805.59;5036918;28;20029;-54
2022/09/10 05:33:35;;;;;;;3.60;1.67;;;;;;;-145.01;100.00;64805.59;5063774;28;20025;-55
2022/09/10 05:36:01;;;;;;;3.65;2.00;;;;;;;-145.01;100.00;64805.59;5062739;28;20107;-55
2022/09/10 05:38:27;;;;;;;4.72;1.83;;;;;;;-145.01;100.00;64805.59;5057506;28;20103;-51
2022/09/10 05:40:52;;;;;;;5.93;2.00;;;;;;;-145.01;100.00;64805.59;5052673;28;20040;-56
2022/09/10 05:43:18;;;;;;;6.07;2.28;;;;;;;-145.01;100.00;64805.59;5052819;28;20028;-56
2022/09/10 05:45:43;;;;;;;5.20;2.10;;;;;;;-145.01;100.00;64805.59;5053756;28;20029;-56
2022/09/10 05:48:09;;;;;;;4.25;1.80;;;;;;;-145.01;100.00;64805.59;5058742;28;20475;-56
2022/09/10 05:50:34;;;;;;;2.45;1.80;;;;;;;-145.01;100.00;64805.59;5052419;28;20083;-55
2022/09/10 05:53:00;;;;;;;3.58;1.80;;;;;;;-145.01;100.00;64805.59;5058895;28;20028;-55
2022/09/10 05:55:25;;;;;;;5.05;1.95;;;;;;;-145.01;100.00;64805.59;5053553;28;20020;-54
2022/09/10 05:57:51;;;;;;;3.08;1.70;;;;;;;-145.01;100.00;64805.59;5052650;28;20635;-53
2022/09/10 06:00:16;;;;;;;3.58;1.70;;;;;;;-145.01;100.00;64805.59;5055993;28;20463;-52
2022/09/10 06:02:44;;;;;;;3.00;2.10;;;;;;;-145.01;100.00;64805.59;5055720;28;20025;-54
2022/09/10 06:05:09;;;;;;;2.50;1.80;;;;;;;-145.01;100.00;64805.59;5053812;28;20029;-54
2022/09/10 06:07:34;;;;;;;4.57;2.10;;;;;;;-145.01;100.00;64805.59;5054672;28;20029;-54
2022/09/10 06:10:00;;;;;;;4.72;1.90;;;;;;;-145.01;100.00;64805.59;5060716;28;20024;-52
2022/09/10 06:12:25;;;;;;;2.85;1.67;;;;;;;-145.01;100.00;64805.59;5053784;28;20376;-53
2022/09/10 06:14:51;;;;;;;2.75;1.60;;;;;;;-145.01;100.00;64805.59;5054485;28;20782;-54
2022/09/10 06:17:17;;;;;;;2.80;1.73;;;;;;;-145.01;100.00;64805.59;5052144;28;20111;-53
2022/09/10 06:19:43;;;;;;;2.97;1.80;;;;;;;-145.01;100.00;64805.59;5057463;28;20024;-52
2022/09/10 06:22:09;;;;;;;2.45;1.83;;;;;;;-145.01;100.00;64805.59;5051979;28;20028;-54
2022/09/10 06:24:36;;;;;;;3.85;2.00;;;;;;;-145.01;100.00;64805.59;5055416;28;20661;-54
2022/09/10 06:27:01;;;;;;;5.93;1.98;;;;;;;-145.01;100.00;64805.59;5056846;28;20414;-53
2022/09/10 06:29:28;;;;;;;2.60;1.80;;;;;;;-145.01;100.00;64805.59;5056534;28;20025;-55
2022/09/10 06:31:53;;;;;;;2.90;1.90;;;;;;;-145.01;100.00;64805.59;5056145;28;20033;-54
2022/09/10 06:34:19;;;;;;;4.28;2.08;;;;;;;-145.01;100.00;64805.59;5083781;28;20293;-53
2022/09/10 06:36:48;;;;;;;6.25;2.10;;;;;;;-145.01;100.00;64805.59;5051605;28;20509;-54
2022/09/10 06:39:14;;;;;;;7.40;2.30;;;;;;;-145.01;100.00;64805.59;5051891;28;20466;-55
2022/09/10 06:41:39;;;;;;;5.95;2.20;;;;;;;-145.01;100.00;64805.59;5053134;28;20535;-54
2022/09/10 06:44:05;;;;;;;6.45;2.15;;;;;;;-145.01;100.00;64805.59;5051585;28;20087;-55
2022/09/10 06:46:30;;;;;;;4.07;2.20;;;;;;;-145.01;100.00;64805.59;5049711;28;20132;-53
2022/09/10 06:48:59;;;;;;;5.80;2.17;;;;;;;-145.01;100.00;64805.59;5056499;28;20021;-55
2022/09/10 06:51:25;;;;;;;6.88;2.20;;;;;;;-145.01;100.00;64805.59;5057732;28;20025;-54
2022/09/10 06:53:50;;;;;;;5.07;2.33;;;;;;;-145.01;100.00;64805.59;5055864;28;20524;-54
2022/09/10 06:56:16;;;;;;;5.30;2.33;;;;;;;-145.01;100.00;64805.59;5043686;28;20077;-53
2022/09/10 06:58:42;;;;;;;4.28;2.55;;;;;;;-145.01;100.00;64805.59;5057995;28;20025;-53
2022/09/10 07:01:14;;;;;;;5.40;2.75;;;;;;;-145.01;100.00;64805.59;5051109;28;20032;-53
2022/09/10 07:03:41;;;;;;;10.90;2.83;;;;;;;-145.01;100.00;64805.59;5050876;28;20095;-55
2022/09/10 07:06:09;;;;;;;7.20;2.60;;;;;;;-145.01;100.00;64805.59;5055482;28;20112;-54
2022/09/10 07:08:35;;;;;;;10.75;2.92;;;;;;;-145.01;100.00;64805.59;5058791;28;20356;-53
2022/09/10 07:11:03;;;;;;;8.55;2.85;;;;;;;-145.01;100.00;64805.59;5088708;28;20404;-52
2022/09/10 07:13:29;;;;;;;6.47;2.90;;;;;;;-145.01;100.00;64805.59;5054677;28;20028;-55
2022/09/10 07:15:55;;;;;;;5.60;3.13;;;;;;;-145.01;100.00;64805.59;5059723;28;20025;-54
2022/09/10 07:18:20;;;;;;;9.65;3.13;;;;;;;-145.01;100.00;64805.59;5050995;28;20021;-55
2022/09/10 07:20:46;;;;;;;6.22;2.80;;;;;;;-145.01;100.00;64805.59;5083128;28;20466;-53
2022/09/10 07:23:12;;;;;;;7.60;3.00;;;;;;;-145.01;100.00;64805.59;5054986;28;20037;-53
2022/09/10 07:25:37;;;;;;;11.00;3.42;;;;;;;-145.01;100.00;64805.59;5061609;28;20027;-54
2022/09/10 07:28:04;;;;;;;10.48;3.13;;;;;;;-145.01;100.00;64805.59;5055658;28;20033;-54
2022/09/10 07:30:30;;;;;;;11.27;3.50;;;;;;;-145.01;100.00;64805.59;5058354;28;20032;-55
2022/09/10 07:32:58;;;;;;;11.73;3.30;;;;;;;-145.01;100.00;64805.59;5056393;28;20032;-54
2022/09/10 07:35:24;;;;;;;10.07;3.50;;;;;;;-145.01;100.00;64805.59;5055593;28;20087;-54
2022/09/10 07:37:49;;;;;;;8.75;3.50;;;;;;;-145.01;100.00;64805.59;5058145;28;20052;-54
2022/09/10 07:40:15;;;;;;;12.40;3.83;;;;;;;-145.01;100.00;64805.59;5051120;28;20371;-55
2022/09/10 07:42:42;;;;;;;15.60;3.80;;;;;;;-145.01;100.00;64805.59;5059892;28;20024;-54
2022/09/10 07:45:09;;;;;;;15.07;4.03;;;;;;;-145.01;100.00;64805.59;5050589;28;20029;-54
2022/09/10 07:47:35;;;;;;;21.60;3.70;;;;;;;-145.01;100.00;64805.59;5053981;28;20039;-54
2022/09/10 07:50:00;;;;;;;8.60;3.63;;;;;;;-145.01;100.00;64805.59;5054302;28;20063;-55
2022/09/10 07:52:25;;;;;;;10.80;3.35;;;;;;;-145.01;100.00;64805.59;5032840;28;20033;-55
2022/09/10 07:54:51;;;;;;;10.13;3.85;;;;;;;-145.01;100.00;64805.59;5051034;28;20021;-53
2022/09/10 07:57:16;;;;;;;10.63;3.25;;;;;;;-145.01;100.00;64805.59;5054786;28;20126;-53
2022/09/10 07:59:42;;;;;;;9.82;3.30;;;;;;;-145.01;100.00;64805.59;5049102;28;20221;-54
2022/09/10 08:02:11;;;;;;;8.93;3.33;;;;;;;-145.01;100.00;64805.59;5054948;28;20052;-54
2022/09/10 08:04:36;;;;;;;11.35;3.40;;;;;;;-145.01;100.00;64805.59;5052258;28;20033;-51
2022/09/10 08:07:02;;;;;;;8.80;2.92;;;;;;;-145.01;100.00;64805.59;5050002;28;20502;-50
2022/09/10 08:09:27;;;;;;;7.28;2.83;;;;;;;-145.01;100.00;64805.59;5048933;28;20071;-54
2022/09/10 08:11:52;;;;;;;8.90;3.03;;;;;;;-145.01;100.00;64805.59;5055688;28;20025;-54
2022/09/10 08:14:18;;;;;;;5.35;2.97;;;;;;;-145.01;100.00;64805.59;5053883;28;20479;-54
2022/09/10 08:16:43;;;;;;;8.43;2.85;;;;;;;-145.01;100.00;64805.59;5048358;28;20229;-54
2022/09/10 08:19:09;;;;;;;10.90;3.50;;;;;;;-145.01;100.00;64805.59;5049370;28;20025;-55
2022/09/10 08:21:35;;;;;;;8.02;2.95;;;;;;;-145.01;100.00;64805.59;5053710;28;20029;-54
2022/09/10 08:24:01;;;;;;;9.38;3.20;;;;;;;-145.01;100.00;64805.59;5050004;28;20021;-54
2022/09/10 08:26:27;;;;;;;6.20;2.83;;;;;;;-145.01;100.00;64805.59;5049659;28;20048;-54
2022/09/10 08:28:54;;;;;;;5.60;2.88;;;;;;;-145.01;100.00;64805.59;5048307;28;20476;-54
2022/09/10 08:31:20;;;;;;;5.97;2.55;;;;;;;-145.01;100.00;64805.59;5052178;28;20074;-54
2022/09/10 08:33:50;;;;;;;5.53;2.83;;;;;;;-145.01;100.00;64805.59;5053949;28;20056;-53
2022/09/10 08:36:15;;;;;;;8.27;2.58;;;;;;;-145.01;100.00;64805.59;5057816;28;20040;-55
2022/09/10 08:38:41;;;;;;;5.47;2.50;;;;;;;-145.01;100.00;64805.59;5055919;28;20021;-55
2022/09/10 08:41:31;;;;;;;6.13;2.30;;;;;;;-145.01;100.00;64805.59;5049733;28;20025;-57
2022/09/10 08:43:57;;;;;;;7.78;2.25;;;;;;;-145.01;100.00;64805.59;5053596;28;20132;-55
2022/09/10 08:46:24;;;;;;;3.17;1.88;;;;;;;-145.01;100.00;64805.59;5053971;28;20044;-56
2022/09/10 08:48:53;;;;;;;5.45;2.22;;;;;;;-145.01;100.00;64805.59;5051046;28;20028;-55
2022/09/10 08:51:26;;;;;;;7.53;2.40;;;;;;;-145.01;100.00;64805.59;5053355;28;20044;-54
2022/09/10 08:53:58;;;;;;;6.93;2.20;;;;;;;-145.01;100.00;64805.59;5036710;28;20174;-55
2022/09/10 08:56:24;;;;;;;5.28;2.30;;;;;;;-145.01;100.00;64805.59;5053054;28;20545;-55
2022/09/10 08:59:21;;;;;;;4.15;2.20;;;;;;;-145.01;100.00;64805.59;5048211;28;20025;-55
2022/09/10 09:01:50;;;;;;;6.78;2.22;;;;;;;-145.01;100.00;64805.59;5043914;28;20507;-54
2022/09/10 09:04:25;;;;;;;8.10;2.90;;;;;;;-145.01;100.00;64805.59;5036668;28;20076;-55
2022/09/10 09:06:53;;;;;;;6.80;2.30;;;;;;;-145.01;100.00;64805.59;5055521;28;20036;-54
2022/09/10 09:09:18;;;;;;;3.60;2.20;;;;;;;-145.01;100.00;64805.59;5056184;28;20043;-56
2022/09/10 09:12:05;;;;;;;6.50;2.45;;;;;;;-145.01;100.00;64805.59;5052906;28;20384;-57
2022/09/10 09:14:45;;;;;;;4.50;2.40;;;;;;;-145.01;100.00;64805.59;5054947;28;20727;-54
2022/09/10 09:17:15;;;;;;;5.13;2.10;;;;;;;-145.01;100.00;64805.59;5053475;28;20060;-55
2022/09/10 09:20:02;;;;;;;;;;;;;;;-145.01;100.00;64805.59;5056841;28;20431;-56
2022/09/10 09:22:33;;;;;;;5.75;2.25;;;;;;;-145.01;100.00;64805.59;5053254;28;20003;-56
2022/09/10 09:25:02;;;;;;;5.30;1.92;;;;;;;-145.01;100.00;64805.59;5051448;28;20444;-54
2022/09/10 09:27:32;;;;;;;5.53;2.75;;;;;;;-145.01;100.00;64805.59;5058843;28;20039;-55
2022/09/10 09:30:01;;;;;;;10.05;2.70;;;;;;;-145.01;100.00;64805.59;5094098;28;20506;-54
2022/09/10 09:32:27;;;;;;;3.78;1.90;;;;;;;-145.01;100.00;64805.59;5047504;28;20040;-56
2022/09/10 09:34:55;;;;;;;4.53;2.00;;;;;;;-145.01;100.00;64805.59;5042080;28;20388;-56
2022/09/10 09:37:27;;;;;;;9.48;3.97;;;;;;;-145.01;100.00;64805.59;5054561;28;20041;-55
2022/09/10 09:40:11;;;;;;;3.63;1.70;;;;;;;-145.01;100.00;64805.59;5052263;28;20495;-56
2022/09/10 09:42:44;;;;;;;9.00;3.85;;;;;;;-145.01;100.00;64805.59;5055291;28;20602;-56
2022/09/10 09:45:38;;;;;;;9.15;3.55;;;;;;;-145.01;100.00;64805.59;5052455;28;20118;-55
2022/09/10 09:48:05;;;;;;;7.88;2.78;;;;;;;-145.01;100.00;64805.59;5054345;28;20052;-55
2022/09/10 09:50:33;;;;;;;5.90;2.55;;;;;;;-145.01;100.00;64805.59;5052087;28;20138;-56
2022/09/10 09:52:58;;;;;;;3.72;1.65;;;;;;;-145.01;100.00;64805.59;5058131;28;20061;-56
2022/09/10 09:55:27;;;;;;;8.45;3.55;;;;;;;-145.01;100.00;64805.59;5058478;28;20029;-57
2022/09/10 09:58:28;;;;;;;2.10;1.40;;;;;;;-145.01;100.00;64805.59;5051349;28;20029;-56
2022/09/10 10:01:02;;;;;;;6.30;2.63;;;;;;;-145.01;100.00;64805.59;5049009;28;20838;-56
2022/09/10 10:03:27;;;;;;;4.40;1.83;;;;;;;-145.01;100.00;64805.59;5051475;28;20036;-56
2022/09/10 10:06:23;;;;;;;2.97;1.80;;;;;;;-145.01;100.00;64805.59;5051165;28;20372;-55
2022/09/10 10:09:05;;;;;;;3.95;1.80;;;;;;;-145.01;100.00;64805.59;5040704;28;20158;-56
2022/09/10 10:11:53;;;;;;;2.65;1.60;;;;;;;-145.01;100.00;64805.59;5088322;28;20418;-57
2022/09/10 10:14:19;;;;;;;5.03;1.90;;;;;;;-145.01;100.00;64805.59;5056458;28;20115;-57
2022/09/10 10:16:47;;;;;;;4.60;1.80;;;;;;;-145.01;100.00;64805.59;5057904;28;20100;-55
2022/09/10 10:19:37;;;;;;;4.10;1.98;;;;;;;-145.01;100.00;64805.59;5033468;28;20086;-57
2022/09/10 10:22:17;;;;;;;2.63;1.45;;;;;;;-145.01;100.00;64805.59;5048861;28;20032;-55
2022/09/10 10:24:44;;;;;;;3.45;1.80;;;;;;;-145.01;100.00;64805.59;5051299;28;20060;-55
2022/09/10 10:27:17;;;;;;;3.35;1.80;;;;;;;-145.01;100.00;64805.59;5055065;28;20039;-56
2022/09/10 10:29:54;;;;;;;2.90;1.77;;;;;;;-145.01;100.00;64805.59;5055456;28;20036;-55
2022/09/10 10:32:19;;;;;;;4.13;1.90;;;;;;;-145.01;100.00;64805.59;5058624;28;20106;-56
2022/09/10 10:35:22;;;;;;;3.67;1.70;;;;;;;-145.01;100.00;64805.59;5061614;28;20413;-56
2022/09/10 10:38:12;;;;;;;5.15;2.00;;;;;;;-145.01;100.00;64805.59;5051590;28;20035;-56
2022/09/10 10:41:04;;;;;;;3.90;1.98;;;;;;;-145.01;100.00;64805.59;5050938;28;20029;-57
2022/09/10 10:43:38;;;;;;;4.15;1.80;;;;;;;-145.01;100.00;64805.59;5051882;28;20060;-55
2022/09/10 10:46:04;;;;;;;3.67;1.90;;;;;;;-145.01;100.00;64805.59;5054275;28;20499;-54
2022/09/10 10:48:48;;;;;;;2.88;1.80;;;;;;;-145.01;100.00;64805.59;5058017;28;20037;-55
2022/09/10 10:51:41;;;;;;;5.55;2.08;;;;;;;-145.01;100.00;64805.59;5062853;28;20541;-55
2022/09/10 10:54:36;;;;;;;7.57;1.80;;;;;;;-145.01;100.00;64805.59;5051411;28;20399;-56
2022/09/10 10:57:29;;;;;;;4.88;1.90;;;;;;;-145.01;100.00;64805.59;5055745;28;20064;-53
2022/09/10 11:00:08;;;;;;;5.47;2.00;;;;;;;-145.01;100.00;64805.59;5053770;28;20024;-54
2022/09/10 11:02:43;;;;;;;3.50;2.00;;;;;;;-145.01;100.00;64805.59;5039579;28;20024;-55
2022/09/10 11:05:29;;;;;;;6.38;2.08;;;;;;;-145.01;100.00;64805.59;5050882;28;20055;-55
2022/09/10 11:07:55;;;;;;;3.85;1.88;;;;;;;-145.01;100.00;64805.59;5034581;28;20060;-55
2022/09/10 11:10:42;;;;;;;8.63;2.78;;;;;;;-145.01;100.00;64805.59;5047697;28;20061;-56
2022/09/10 11:13:18;;;;;;;2.80;1.73;;;;;;;-145.01;100.00;64805.59;5038273;28;20050;-53
2022/09/10 11:15:47;;;;;;;3.80;2.00;;;;;;;-145.01;100.00;64805.59;5056712;28;20463;-55
2022/09/10 11:18:14;;;;;;;2.42;1.80;;;;;;;-145.01;100.00;64805.59;5041882;28;20037;-55